GCLA

Details ICAO GCLA (SPC)
Name La Palma
Region Canary Islands
Timezone Atlantic/Canary (UTC+0.0)
Plans Departing 423
Arriving 590
Stats Elevation 106 ft / 32 m (AMSL)
Location 28.626400° -17.755600°
Runways 1
Magnetic Variation 5.371° W
Sunrise 2019-03-23 07:13:11 UTC / 2019-03-23 07:13:11 Local
Sunset 2019-03-23 19:24:45 UTC / 2019-03-23 19:24:45 Local
Advertisement - Login to hide

Runways

ID Width Length Bearing (true/mag) Surface Threshold Overrun Markings Lighting
18 148 ft / 45 m 7,225 ft / 2,202 m 179.01° / 184.38° ASPHALT 0 ft / 0 m 279 ft / 85 m UK-PREC-APP CENTERLINE EDGE THRESHOLD SALS
36 148 ft / 45 m 7,225 ft / 2,202 m 359.01° / 4.38° ASPHALT 0 ft / 0 m 243 ft / 74 m PREC-APP CENTERLINE EDGE THRESHOLD

Map

Weather


0- 5 10 15 20 25 30 35+ Temperature / °C

Clouds and Precipitation
Forecast for 2019-03-23 18:00 UTC. Updated 3 hours ago

Ground ~20,000 ft ~40,000 ft Winds

METAR

GCLA 231830Z 03014KT 360V060 9999 BKN040 18/11 Q1015

TAF

TAF GCLA 231400Z 2315/2415 03016KT 9999 SCT040 TX21/2414Z TN16/2406Z BECMG 2321/2323 32010KT BECMG 2410/2412 VRB04KT

Frequencies

Tower 118.90 MHz La Palma Tower
Ground 121.80 MHz La Palma Ground
Recorded 118.60 MHz La Palma Information
Approach 126.10 MHz La Palma Approach
Warning: Do not use this data for real-world aviation or navigation. No guarantee of current accuracy is given.